createdAt,value
2022-09-30T00:01:46.786Z,4.60
2022-09-30T00:04:17.687Z,4.65
2022-09-30T00:06:46.374Z,4.78
2022-09-30T00:09:16.841Z,4.95
2022-09-30T00:11:45.743Z,4.30
2022-09-30T00:14:24.693Z,4.22
2022-09-30T00:16:56.249Z,4.18
2022-09-30T00:19:27.039Z,4.60
2022-09-30T00:21:56.696Z,3.72
2022-09-30T00:24:31.357Z,4.07
2022-09-30T00:27:00.080Z,4.18
2022-09-30T00:29:28.722Z,3.83
2022-09-30T00:31:57.421Z,4.13
2022-09-30T00:34:26.238Z,3.88
2022-09-30T00:36:56.585Z,4.10
2022-09-30T00:39:27.892Z,4.60
2022-09-30T00:41:59.329Z,4.43
2022-09-30T00:44:51.058Z,4.38
2022-09-30T00:47:40.761Z,4.45
2022-09-30T00:50:20.109Z,4.40
2022-09-30T00:52:55.409Z,4.47
2022-09-30T00:55:35.387Z,4.40
2022-09-30T00:58:06.833Z,4.45
2022-09-30T01:00:35.679Z,4.35
2022-09-30T01:03:07.398Z,4.38
2022-09-30T01:05:36.620Z,5.18
2022-09-30T01:08:08.161Z,4.75
2022-09-30T01:10:38.355Z,4.35
2022-09-30T01:13:07.535Z,4.63
2022-09-30T01:15:51.358Z,4.35
2022-09-30T01:18:28.506Z,4.47
2022-09-30T01:21:14.798Z,4.28
2022-09-30T01:24:17.367Z,4.18
2022-09-30T01:27:06.534Z,4.40
2022-09-30T01:30:05.743Z,3.90
2022-09-30T01:33:07.306Z,4.20
2022-09-30T01:35:50.841Z,4.00
2022-09-30T01:38:29.318Z,4.22
2022-09-30T01:41:06.644Z,4.20
2022-09-30T01:44:01.915Z,3.80
2022-09-30T01:46:37.228Z,3.78
2022-09-30T01:49:13.788Z,3.85
2022-09-30T01:51:51.191Z,3.67
2022-09-30T01:54:25.181Z,3.78
2022-09-30T01:57:03.651Z,3.60
2022-09-30T01:59:37.429Z,3.63
2022-09-30T02:02:11.799Z,4.03
2022-09-30T02:04:45.780Z,3.85
2022-09-30T02:07:25.120Z,3.60
2022-09-30T02:10:00.078Z,3.72
2022-09-30T02:12:32.687Z,3.78
2022-09-30T02:15:04.513Z,3.67
2022-09-30T02:17:36.593Z,4.20
2022-09-30T02:20:10.290Z,3.72
2022-09-30T02:22:43.368Z,4.00
2022-09-30T02:25:19.145Z,3.55
2022-09-30T02:27:51.767Z,3.88
2022-09-30T02:30:20.729Z,5.05
2022-09-30T02:32:52.211Z,3.55
2022-09-30T02:35:27.611Z,3.65
2022-09-30T02:38:05.743Z,3.33
2022-09-30T02:40:40.817Z,3.40
2022-09-30T02:43:10.478Z,3.38
2022-09-30T02:45:47.573Z,3.38
2022-09-30T02:48:26.645Z,3.25
2022-09-30T02:51:04.004Z,3.55
2022-09-30T02:53:39.891Z,3.55
2022-09-30T02:56:20.782Z,3.65
2022-09-30T02:58:51.286Z,3.38
2022-09-30T03:01:20.115Z,2.90
2022-09-30T03:03:52.783Z,3.35
2022-09-30T03:06:25.953Z,3.63
2022-09-30T03:08:55.181Z,3.53
2022-09-30T03:11:25.713Z,3.90
2022-09-30T03:14:12.076Z,3.55
2022-09-30T03:17:12.459Z,4.03
2022-09-30T03:19:52.670Z,3.95
2022-09-30T03:22:36.515Z,3.63
2022-09-30T03:25:25.102Z,2.70
2022-09-30T03:28:05.960Z,1.90
2022-09-30T03:30:42.209Z,3.65
2022-09-30T03:33:17.956Z,2.22
2022-09-30T03:35:54.907Z,1.60
2022-09-30T03:38:36.209Z,2.20
2022-09-30T03:41:11.890Z,2.28
2022-09-30T03:43:46.610Z,2.42
2022-09-30T03:46:22.192Z,3.00
2022-09-30T03:48:53.043Z,2.70
2022-09-30T03:51:24.857Z,2.30
2022-09-30T03:53:55.387Z,2.55
2022-09-30T03:56:27.396Z,2.92
2022-09-30T03:58:55.735Z,2.90
2022-09-30T04:01:24.862Z,2.63
2022-09-30T04:03:59.840Z,2.83
2022-09-30T04:06:29.101Z,2.92
2022-09-30T04:08:59.068Z,2.72
2022-09-30T04:11:27.565Z,2.67
2022-09-30T04:13:55.886Z,2.85
2022-09-30T04:16:25.158Z,2.88
2022-09-30T04:18:53.919Z,3.13
2022-09-30T04:21:22.104Z,3.22
2022-09-30T04:23:50.910Z,3.35
2022-09-30T04:26:20.924Z,3.65
2022-09-30T04:28:49.723Z,3.15
2022-09-30T04:31:19.597Z,4.07
2022-09-30T04:33:48.109Z,3.13
2022-09-30T04:36:16.504Z,3.13
2022-09-30T04:38:45.240Z,3.50
2022-09-30T04:41:16.132Z,4.28
2022-09-30T04:43:47.060Z,4.72
2022-09-30T04:46:19.094Z,5.47
2022-09-30T04:48:48.760Z,5.70
2022-09-30T04:51:18.842Z,5.80
2022-09-30T04:53:48.227Z,5.45
2022-09-30T04:56:19.779Z,5.50
2022-09-30T04:58:49.797Z,5.25
2022-09-30T05:01:19.525Z,5.78
2022-09-30T05:03:48.912Z,6.50
2022-09-30T05:06:17.613Z,5.82
2022-09-30T05:08:46.681Z,6.90
2022-09-30T05:11:23.449Z,7.15
2022-09-30T05:13:54.023Z,6.45
2022-09-30T05:16:22.872Z,6.88
2022-09-30T05:18:51.663Z,6.57
2022-09-30T05:21:21.287Z,5.68
2022-09-30T05:23:50.173Z,6.07
2022-09-30T05:26:19.690Z,6.43
2022-09-30T05:28:47.978Z,7.03
2022-09-30T05:31:17.835Z,6.00
2022-09-30T05:33:47.978Z,4.80
2022-09-30T05:36:18.062Z,4.47
2022-09-30T05:38:46.623Z,4.90
2022-09-30T05:41:16.341Z,6.43
2022-09-30T05:43:47.832Z,6.65
2022-09-30T05:46:19.086Z,6.95
2022-09-30T05:48:48.061Z,6.80
2022-09-30T05:51:16.561Z,8.75
2022-09-30T05:53:49.430Z,7.93
2022-09-30T05:56:17.969Z,8.20
2022-09-30T05:58:47.290Z,8.13
2022-09-30T06:01:18.167Z,7.68
2022-09-30T06:03:48.082Z,6.53
2022-09-30T06:06:17.388Z,4.75
2022-09-30T06:08:45.931Z,6.20
2022-09-30T06:11:16.221Z,6.93
2022-09-30T06:13:45.929Z,7.00
2022-09-30T06:16:16.140Z,7.35
2022-09-30T06:18:46.349Z,7.22
2022-09-30T06:21:17.617Z,5.97
2022-09-30T06:23:46.617Z,5.50
2022-09-30T06:26:15.742Z,5.05
2022-09-30T06:28:44.707Z,6.60
2022-09-30T06:31:14.156Z,5.63
2022-09-30T06:33:45.120Z,5.68
2022-09-30T06:36:13.434Z,8.55
2022-09-30T06:38:41.828Z,6.18
2022-09-30T06:41:10.937Z,5.30
2022-09-30T06:43:42.454Z,8.63
2022-09-30T06:46:17.648Z,6.68
2022-09-30T06:48:49.893Z,6.53
2022-09-30T06:51:18.116Z,6.28
2022-09-30T06:53:49.012Z,5.43
2022-09-30T06:56:20.998Z,5.47
2022-09-30T06:58:51.761Z,6.85
2022-09-30T07:01:21.071Z,6.80
2022-09-30T07:03:56.548Z,5.45
2022-09-30T07:06:27.047Z,6.13
2022-09-30T07:08:57.064Z,5.95
2022-09-30T07:11:26.544Z,8.70
2022-09-30T07:13:55.471Z,4.90
2022-09-30T07:16:25.746Z,4.65
2022-09-30T07:18:59.806Z,4.03
2022-09-30T07:21:28.288Z,4.95
2022-09-30T07:23:57.039Z,5.65
2022-09-30T07:26:28.182Z,5.63
2022-09-30T07:28:56.459Z,5.63
2022-09-30T07:31:35.610Z,5.38
2022-09-30T07:34:10.665Z,4.78
2022-09-30T07:36:41.848Z,5.00
2022-09-30T07:39:17.757Z,4.85
2022-09-30T07:41:47.141Z,4.68
2022-09-30T07:44:16.067Z,8.05
2022-09-30T07:46:45.608Z,6.35
2022-09-30T07:49:25.494Z,5.78
2022-09-30T07:51:55.861Z,5.25
2022-09-30T07:54:25.861Z,5.28
2022-09-30T07:57:11.086Z,5.43
2022-09-30T07:59:44.237Z,6.38
2022-09-30T08:02:17.787Z,6.07
2022-09-30T08:04:47.773Z,8.40
2022-09-30T08:07:17.373Z,8.32
2022-09-30T08:09:45.728Z,5.18
2022-09-30T08:12:14.166Z,5.20
2022-09-30T08:14:42.597Z,4.80
2022-09-30T08:17:11.112Z,4.57
2022-09-30T08:19:44.062Z,4.85
2022-09-30T08:22:15.055Z,4.30
2022-09-30T08:24:43.342Z,3.70
2022-09-30T08:27:11.684Z,4.15
2022-09-30T08:29:54.444Z,3.90
2022-09-30T08:32:23.392Z,3.63
2022-09-30T08:34:51.687Z,3.67
2022-09-30T08:37:21.297Z,2.75
2022-09-30T08:39:49.557Z,2.50
2022-09-30T08:42:37.957Z,2.72
2022-09-30T08:45:18.365Z,2.28
2022-09-30T08:47:54.349Z,2.20
2022-09-30T08:50:30.627Z,2.20
2022-09-30T08:53:03.869Z,2.10
2022-09-30T08:55:39.923Z,2.47
2022-09-30T08:58:16.439Z,2.33
2022-09-30T09:00:45.034Z,2.55
2022-09-30T09:03:15.860Z,2.78
2022-09-30T09:05:52.686Z,3.10
2022-09-30T09:08:30.588Z,2.55
2022-09-30T09:11:05.942Z,2.20
2022-09-30T09:13:46.464Z,2.28
2022-09-30T09:16:26.828Z,2.40
2022-09-30T09:19:05.525Z,2.20
2022-09-30T09:21:51.857Z,2.08
2022-09-30T09:24:27.083Z,1.90
2022-09-30T09:26:58.912Z,1.80
2022-09-30T09:29:39.588Z,1.48
2022-09-30T09:32:15.158Z,1.80
2022-09-30T09:34:43.567Z,1.38
2022-09-30T09:37:21.610Z,1.83
2022-09-30T09:40:04.681Z,1.50
2022-09-30T09:42:56.331Z,1.60
2022-09-30T09:45:30.657Z,1.60
2022-09-30T09:48:00.122Z,1.70
2022-09-30T09:50:37.409Z,1.40
2022-09-30T09:53:30.249Z,1.70
2022-09-30T09:56:00.667Z,1.45
2022-09-30T09:58:29.934Z,1.52
2022-09-30T10:01:32.821Z,1.88
2022-09-30T10:04:15.510Z,1.60
2022-09-30T10:06:52.552Z,1.90
2022-09-30T10:09:32.300Z,2.20
2022-09-30T10:12:30.843Z,1.90
2022-09-30T10:15:03.361Z,1.67
2022-09-30T10:17:33.584Z,1.92
2022-09-30T10:20:08.323Z,1.67
2022-09-30T10:22:38.187Z,1.70
2022-09-30T10:25:18.645Z,1.77
2022-09-30T10:27:54.763Z,1.70
2022-09-30T10:30:43.985Z,2.00
2022-09-30T10:33:24.452Z,2.05
2022-09-30T10:36:01.733Z,2.30
2022-09-30T10:38:32.329Z,1.80
2022-09-30T10:41:01.069Z,1.92
2022-09-30T10:43:36.031Z,2.17
2022-09-30T10:46:25.083Z,1.90
2022-09-30T10:48:57.180Z,1.90
2022-09-30T10:51:31.340Z,1.60
2022-09-30T10:53:59.558Z,1.90
2022-09-30T10:56:43.789Z,2.33
2022-09-30T10:59:31.285Z,1.73
2022-09-30T11:02:06.736Z,1.75
2022-09-30T11:04:40.566Z,1.77
2022-09-30T11:07:23.183Z,1.73
2022-09-30T11:09:57.958Z,1.48
2022-09-30T11:12:33.652Z,1.67
2022-09-30T11:15:14.132Z,1.70
2022-09-30T11:17:49.939Z,1.40
2022-09-30T11:20:22.774Z,1.85
2022-09-30T11:22:57.082Z,1.35
2022-09-30T11:25:37.683Z,1.67
2022-09-30T11:28:27.173Z,2.00
2022-09-30T11:31:07.265Z,1.38
2022-09-30T11:33:54.588Z,1.52
2022-09-30T11:36:32.189Z,1.67
2022-09-30T11:39:14.249Z,1.50
2022-09-30T11:41:47.335Z,1.20
2022-09-30T11:44:30.513Z,1.65
2022-09-30T11:47:15.711Z,1.70
2022-09-30T11:50:18.297Z,1.70
2022-09-30T11:52:56.610Z,1.58
2022-09-30T11:55:58.567Z,1.55
2022-09-30T11:58:41.867Z,1.60
2022-09-30T12:01:22.473Z,1.80
2022-09-30T12:04:00.433Z,1.40
2022-09-30T12:06:34.533Z,1.80
2022-09-30T12:09:15.423Z,1.30
2022-09-30T12:11:50.854Z,1.10
2022-09-30T12:14:26.515Z,1.48
2022-09-30T12:17:14.360Z,1.27
2022-09-30T12:19:49.259Z,1.35
2022-09-30T12:22:21.288Z,1.40
2022-09-30T12:24:50.049Z,1.65
2022-09-30T12:27:22.631Z,1.48
2022-09-30T12:30:16.530Z,1.40
2022-09-30T12:33:22.252Z,1.40
2022-09-30T12:36:27.895Z,1.83
2022-09-30T12:39:34.124Z,1.35
2022-09-30T12:42:24.320Z,1.45
2022-09-30T12:45:25.601Z,1.48
2022-09-30T12:47:57.188Z,1.50
2022-09-30T12:50:32.763Z,1.50
2022-09-30T12:53:15.007Z,1.90
2022-09-30T12:55:46.463Z,1.58
2022-09-30T12:58:31.196Z,1.55
2022-09-30T13:01:06.865Z,1.48
2022-09-30T13:03:51.226Z,1.45
2022-09-30T13:06:22.102Z,1.48
2022-09-30T13:09:19.926Z,1.38
2022-09-30T13:12:13.649Z,1.13
2022-09-30T13:14:44.144Z,1.30
2022-09-30T13:17:36.545Z,1.20
2022-09-30T13:20:52.755Z,1.38
2022-09-30T13:23:39.593Z,1.23
2022-09-30T13:26:34.498Z,1.38
2022-09-30T13:29:38.265Z,2.10
2022-09-30T13:32:11.609Z,1.40
2022-09-30T13:34:58.344Z,1.48
2022-09-30T13:37:41.440Z,1.30
2022-09-30T13:40:37.811Z,1.40
2022-09-30T13:43:21.132Z,1.50
2022-09-30T13:45:53.062Z,1.40
2022-09-30T13:48:27.587Z,1.50
2022-09-30T13:50:58.213Z,1.70
2022-09-30T13:53:32.458Z,1.60
2022-09-30T13:56:03.885Z,1.77
2022-09-30T13:58:54.707Z,1.80
2022-09-30T14:01:44.396Z,1.45
2022-09-30T14:04:47.580Z,1.50
2022-09-30T14:07:26.388Z,1.77
2022-09-30T14:10:29.895Z,2.17
2022-09-30T14:13:15.146Z,1.90
2022-09-30T14:16:16.614Z,1.63
2022-09-30T14:19:07.879Z,1.67
2022-09-30T14:21:42.813Z,2.03
2022-09-30T14:24:17.658Z,1.65
2022-09-30T14:27:16.356Z,1.50
2022-09-30T14:29:54.819Z,1.90
2022-09-30T14:32:29.488Z,1.95
2022-09-30T14:35:01.149Z,1.92
2022-09-30T14:37:34.144Z,1.77
2022-09-30T14:40:04.113Z,1.90
2022-09-30T14:42:37.034Z,2.42
2022-09-30T14:45:07.915Z,2.08
2022-09-30T14:47:40.605Z,2.58
2022-09-30T14:50:16.360Z,2.30
2022-09-30T14:52:46.590Z,2.50
2022-09-30T14:55:27.093Z,2.47
2022-09-30T14:57:58.051Z,2.10
2022-09-30T15:00:32.147Z,2.20
2022-09-30T15:03:02.229Z,2.13
2022-09-30T15:05:32.666Z,2.22
2022-09-30T15:08:07.578Z,2.28
2022-09-30T15:10:36.374Z,2.03
2022-09-30T15:13:06.391Z,2.63
2022-09-30T15:15:37.264Z,2.60
2022-09-30T15:18:33.062Z,2.47
2022-09-30T15:21:14.434Z,2.08
2022-09-30T15:23:45.905Z,2.35
2022-09-30T15:26:15.818Z,2.22
2022-09-30T15:28:45.776Z,2.72
2022-09-30T15:31:25.417Z,2.30
2022-09-30T15:34:06.156Z,1.92
2022-09-30T15:36:38.397Z,1.85
2022-09-30T15:39:18.684Z,1.70
2022-09-30T15:41:48.741Z,1.98
2022-09-30T15:44:19.914Z,1.80
2022-09-30T15:47:05.638Z,1.63
2022-09-30T15:49:47.415Z,1.88
2022-09-30T15:52:29.461Z,1.50
2022-09-30T15:54:59.348Z,1.90
2022-09-30T15:57:46.979Z,1.70
2022-09-30T16:00:39.362Z,1.70
2022-09-30T16:03:19.016Z,1.63
2022-09-30T16:05:53.195Z,1.40
2022-09-30T16:08:27.362Z,1.50
2022-09-30T16:10:58.471Z,1.67
2022-09-30T16:13:30.785Z,1.40
2022-09-30T16:16:00.073Z,1.48
2022-09-30T16:18:34.779Z,1.42
2022-09-30T16:21:05.436Z,1.30
2022-09-30T16:23:38.511Z,1.80
2022-09-30T16:26:24.787Z,1.00
2022-09-30T16:28:53.654Z,1.20
2022-09-30T16:31:22.293Z,1.02
2022-09-30T16:33:51.130Z,1.20
2022-09-30T16:36:20.291Z,1.50
2022-09-30T16:38:49.941Z,1.38
2022-09-30T16:41:18.612Z,1.50
2022-09-30T16:43:46.943Z,1.30
2022-09-30T16:46:15.141Z,1.33
2022-09-30T16:48:43.886Z,1.33
2022-09-30T16:51:15.862Z,1.30
2022-09-30T16:53:47.051Z,1.20
2022-09-30T16:56:19.316Z,1.20
2022-09-30T16:58:48.206Z,1.15
2022-09-30T17:01:20.948Z,1.30
2022-09-30T17:03:50.089Z,1.30
2022-09-30T17:06:20.940Z,1.42
2022-09-30T17:08:50.559Z,1.65
2022-09-30T17:11:20.610Z,1.77
2022-09-30T17:13:48.849Z,1.70
2022-09-30T17:16:17.655Z,1.55
2022-09-30T17:18:47.032Z,2.20
2022-09-30T17:21:18.377Z,1.83
2022-09-30T17:23:46.687Z,1.27
2022-09-30T17:26:19.943Z,1.50
2022-09-30T17:28:48.167Z,1.33
2022-09-30T17:31:16.504Z,1.40
2022-09-30T17:33:45.433Z,1.50
2022-09-30T17:36:15.388Z,1.88
2022-09-30T17:38:46.019Z,1.52
2022-09-30T17:41:34.056Z,1.20
2022-09-30T17:44:04.978Z,1.52
2022-09-30T17:46:43.011Z,1.30
2022-09-30T17:49:12.198Z,1.40
2022-09-30T17:51:41.376Z,1.63
2022-09-30T17:54:10.127Z,1.60
2022-09-30T17:56:38.976Z,1.52
2022-09-30T17:59:09.732Z,1.52
2022-09-30T18:01:47.161Z,1.60
2022-09-30T18:04:15.827Z,1.48
2022-09-30T18:06:44.124Z,1.40
2022-09-30T18:09:12.565Z,1.35
2022-09-30T18:11:43.743Z,2.10
2022-09-30T18:14:17.635Z,1.33
2022-09-30T18:16:46.299Z,1.65
2022-09-30T18:21:47.676Z,1.73
2022-09-30T18:24:39.154Z,2.00
2022-09-30T18:27:07.723Z,1.75
2022-09-30T18:29:38.678Z,1.40
2022-09-30T18:32:07.663Z,1.60
2022-09-30T18:34:36.215Z,2.05
2022-09-30T18:37:11.845Z,1.92
2022-09-30T18:39:41.087Z,2.03
2022-09-30T18:42:09.561Z,2.08
2022-09-30T18:44:40.170Z,1.77
2022-09-30T18:47:08.504Z,1.60
2022-09-30T18:49:38.035Z,1.95
2022-09-30T18:52:06.560Z,1.90
2022-09-30T18:54:43.693Z,2.33
2022-09-30T18:57:14.457Z,1.90
2022-09-30T18:59:44.390Z,1.95
2022-09-30T19:02:20.810Z,3.08
2022-09-30T19:04:49.109Z,2.53
2022-09-30T19:07:20.560Z,2.35
2022-09-30T19:09:48.959Z,2.08
2022-09-30T19:12:17.796Z,2.05
2022-09-30T19:14:48.421Z,1.98
2022-09-30T19:17:17.222Z,2.40
2022-09-30T19:19:46.149Z,2.22
2022-09-30T19:22:14.627Z,2.67
2022-09-30T19:24:43.844Z,2.05
2022-09-30T19:27:12.520Z,1.70
2022-09-30T19:29:40.835Z,2.13
2022-09-30T19:32:12.855Z,1.85
2022-09-30T19:34:42.594Z,2.13
2022-09-30T19:37:22.402Z,1.73
2022-09-30T19:39:52.464Z,2.20
2022-09-30T19:42:21.372Z,2.00
2022-09-30T19:44:49.783Z,2.28
2022-09-30T19:47:19.883Z,1.95
2022-09-30T19:49:48.082Z,2.08
2022-09-30T19:52:21.832Z,2.10
2022-09-30T19:54:51.793Z,2.10
2022-09-30T19:57:20.036Z,2.08
2022-09-30T19:59:48.281Z,2.20
2022-09-30T20:02:16.674Z,1.63
2022-09-30T20:04:47.103Z,1.95
2022-09-30T20:07:16.063Z,1.75
2022-09-30T20:09:46.566Z,1.92
2022-09-30T20:12:17.787Z,1.90
2022-09-30T20:15:03.749Z,2.30
2022-09-30T20:17:32.017Z,1.90
2022-09-30T20:20:19.443Z,1.77
2022-09-30T20:22:47.692Z,2.00
2022-09-30T20:25:16.183Z,1.70
2022-09-30T20:27:51.952Z,1.88
2022-09-30T20:30:21.246Z,1.80
2022-09-30T20:32:49.525Z,1.80
2022-09-30T20:35:19.261Z,2.00
2022-09-30T20:37:47.721Z,1.65
2022-09-30T20:40:15.983Z,1.50
2022-09-30T20:42:44.961Z,2.10
2022-09-30T20:45:14.166Z,1.98
2022-09-30T20:47:45.551Z,1.73
2022-09-30T20:50:13.872Z,1.90
2022-09-30T20:52:43.833Z,2.05
2022-09-30T20:55:12.577Z,1.77
2022-09-30T20:57:44.447Z,1.73
2022-09-30T21:00:16.242Z,1.42
2022-09-30T21:02:44.586Z,1.80
2022-09-30T21:05:12.829Z,1.75
2022-09-30T21:07:41.395Z,1.70
2022-09-30T21:10:12.431Z,1.70
2022-09-30T21:12:42.822Z,1.50
2022-09-30T21:15:12.136Z,1.70
2022-09-30T21:17:41.090Z,1.75
2022-09-30T21:20:10.743Z,1.92
2022-09-30T21:22:38.934Z,1.70
2022-09-30T21:25:08.686Z,1.95
2022-09-30T21:27:38.399Z,1.70
2022-09-30T21:30:08.184Z,1.60
2022-09-30T21:32:36.363Z,2.00
2022-09-30T21:35:05.299Z,2.15
2022-09-30T21:37:33.560Z,1.88
2022-09-30T21:40:02.440Z,1.42
2022-09-30T21:42:30.611Z,1.60
2022-09-30T21:45:00.229Z,1.67
2022-09-30T21:47:28.984Z,1.70
2022-09-30T21:49:57.435Z,1.80
2022-09-30T21:52:28.566Z,2.08
2022-09-30T21:54:58.927Z,2.03
2022-09-30T21:57:29.046Z,2.03
2022-09-30T21:59:57.599Z,2.08
2022-09-30T22:02:27.945Z,2.00
2022-09-30T22:04:59.793Z,1.88
2022-09-30T22:07:28.107Z,1.90
2022-09-30T22:09:56.427Z,2.10
2022-09-30T22:12:24.689Z,1.80
2022-09-30T22:14:52.928Z,2.08
2022-09-30T22:17:21.452Z,2.13
2022-09-30T22:19:51.033Z,2.10
2022-09-30T22:22:19.783Z,2.45
2022-09-30T22:24:48.198Z,2.20
2022-09-30T22:27:16.432Z,2.40
2022-09-30T22:29:45.366Z,2.40
2022-09-30T22:32:13.672Z,2.28
2022-09-30T22:34:59.316Z,2.30
2022-09-30T22:38:09.441Z,2.60
2022-09-30T22:40:38.134Z,2.17
2022-09-30T22:43:06.353Z,2.40
2022-09-30T22:45:36.019Z,2.42
2022-09-30T22:48:07.679Z,2.75
2022-09-30T22:50:36.825Z,2.60
2022-09-30T22:53:07.278Z,2.13
2022-09-30T22:55:37.723Z,2.33
2022-09-30T22:58:06.423Z,2.55
2022-09-30T23:00:34.662Z,2.80
2022-09-30T23:03:03.635Z,2.28
2022-09-30T23:05:31.876Z,2.65
2022-09-30T23:08:00.030Z,2.60
2022-09-30T23:10:29.788Z,2.30
2022-09-30T23:12:58.367Z,3.17
2022-09-30T23:15:26.674Z,2.42
2022-09-30T23:17:55.022Z,2.92
2022-09-30T23:20:23.955Z,2.35
2022-09-30T23:22:52.418Z,2.58
2022-09-30T23:25:20.683Z,2.47
2022-09-30T23:27:50.728Z,2.72
2022-09-30T23:30:19.106Z,2.40
2022-09-30T23:32:47.270Z,2.80
2022-09-30T23:35:15.656Z,2.42
2022-09-30T23:37:43.955Z,3.38
2022-09-30T23:40:12.225Z,2.63
2022-09-30T23:42:40.490Z,2.55
2022-09-30T23:45:11.211Z,2.33
2022-09-30T23:47:39.382Z,2.38
2022-09-30T23:50:09.336Z,2.70
2022-09-30T23:52:37.536Z,2.90
2022-09-30T23:55:11.580Z,2.53
2022-09-30T23:57:40.151Z,2.75
